sensor_id;sensor_type;location;lat;lon;timestamp;pressure;altitude;pressure_sealevel;temperature;humidity
46642;BME280;32370;41.864;-88.124;2023-04-03T00:00:00;98174.80;;;10.85;56.21
46642;BME280;32370;41.864;-88.124;2023-04-03T00:02:28;98177.59;;;11.15;56.88
46642;BME280;32370;41.864;-88.124;2023-04-03T00:04:55;98176.39;;;10.64;56.81
46642;BME280;32370;41.864;-88.124;2023-04-03T00:07:23;98175.63;;;10.77;56.49
46642;BME280;32370;41.864;-88.124;2023-04-03T00:09:51;98173.48;;;10.80;56.35
46642;BME280;32370;41.864;-88.124;2023-04-03T00:12:19;98172.49;;;10.99;56.48
46642;BME280;32370;41.864;-88.124;2023-04-03T00:14:47;98162.10;;;10.45;57.18
46642;BME280;32370;41.864;-88.124;2023-04-03T00:17:14;98158.45;;;10.50;56.89
46642;BME280;32370;41.864;-88.124;2023-04-03T00:19:42;98156.87;;;10.42;57.28
46642;BME280;32370;41.864;-88.124;2023-04-03T00:22:10;98154.21;;;10.21;57.60
46642;BME280;32370;41.864;-88.124;2023-04-03T00:24:38;98147.03;;;9.85;58.53
46642;BME280;32370;41.864;-88.124;2023-04-03T00:27:06;98143.20;;;9.91;58.63
46642;BME280;32370;41.864;-88.124;2023-04-03T00:29:34;98141.67;;;10.01;58.54
46642;BME280;32370;41.864;-88.124;2023-04-03T00:32:02;98137.35;;;9.90;58.77
46642;BME280;32370;41.864;-88.124;2023-04-03T00:34:30;98135.78;;;9.91;58.97
46642;BME280;32370;41.864;-88.124;2023-04-03T00:36:58;98139.64;;;10.25;59.23
46642;BME280;32370;41.864;-88.124;2023-04-03T00:39:27;98138.80;;;9.93;59.60
46642;BME280;32370;41.864;-88.124;2023-04-03T00:41:55;98140.55;;;9.69;60.14
46642;BME280;32370;41.864;-88.124;2023-04-03T00:45:24;98140.93;;;9.80;60.63
46642;BME280;32370;41.864;-88.124;2023-04-03T00:47:53;98139.67;;;9.23;61.94
46642;BME280;32370;41.864;-88.124;2023-04-03T00:50:22;98134.20;;;9.34;61.93
46642;BME280;32370;41.864;-88.124;2023-04-03T00:52:51;98143.82;;;9.72;61.76
46642;BME280;32370;41.864;-88.124;2023-04-03T00:55:20;98143.72;;;9.96;62.09
46642;BME280;32370;41.864;-88.124;2023-04-03T00:57:49;98140.66;;;9.98;62.24
46642;BME280;32370;41.864;-88.124;2023-04-03T01:00:20;98147.31;;;9.49;63.13
46642;BME280;32370;41.864;-88.124;2023-04-03T01:02:48;98166.34;;;9.82;62.27
46642;BME280;32370;41.864;-88.124;2023-04-03T01:05:17;98166.55;;;10.18;62.00
46642;BME280;32370;41.864;-88.124;2023-04-03T01:07:45;98169.46;;;10.04;62.60
46642;BME280;32370;41.864;-88.124;2023-04-03T01:10:16;98170.74;;;9.54;63.34
46642;BME280;32370;41.864;-88.124;2023-04-03T01:12:46;98165.21;;;9.81;63.39
46642;BME280;32370;41.864;-88.124;2023-04-03T01:15:16;98170.41;;;9.62;64.18
46642;BME280;32370;41.864;-88.124;2023-04-03T01:17:47;98170.14;;;9.66;64.11
46642;BME280;32370;41.864;-88.124;2023-04-03T01:21:25;98159.91;;;9.89;65.01
46642;BME280;32370;41.864;-88.124;2023-04-03T01:24:11;98160.88;;;9.49;65.00
46642;BME280;32370;41.864;-88.124;2023-04-03T01:26:44;98161.38;;;9.61;64.71
46642;BME280;32370;41.864;-88.124;2023-04-03T01:29:12;98158.99;;;9.37;65.54
46642;BME280;32370;41.864;-88.124;2023-04-03T01:31:46;98158.12;;;9.25;65.80
46642;BME280;32370;41.864;-88.124;2023-04-03T01:34:15;98151.67;;;9.17;66.27
46642;BME280;32370;41.864;-88.124;2023-04-03T01:36:43;98145.40;;;8.93;66.40
46642;BME280;32370;41.864;-88.124;2023-04-03T01:39:11;98150.17;;;9.16;66.30
46642;BME280;32370;41.864;-88.124;2023-04-03T01:41:39;98152.07;;;8.97;67.38
46642;BME280;32370;41.864;-88.124;2023-04-03T01:44:07;98153.64;;;9.08;67.05
46642;BME280;32370;41.864;-88.124;2023-04-03T01:46:36;98160.02;;;9.12;67.06
46642;BME280;32370;41.864;-88.124;2023-04-03T01:49:04;98167.02;;;8.89;67.61
46642;BME280;32370;41.864;-88.124;2023-04-03T01:51:32;98157.96;;;8.97;67.65
46642;BME280;32370;41.864;-88.124;2023-04-03T01:54:00;98150.23;;;8.81;67.89
46642;BME280;32370;41.864;-88.124;2023-04-03T01:56:28;98144.96;;;8.93;67.17
46642;BME280;32370;41.864;-88.124;2023-04-03T01:58:56;98143.52;;;9.10;67.31
46642;BME280;32370;41.864;-88.124;2023-04-03T02:01:23;98142.42;;;9.25;66.89
46642;BME280;32370;41.864;-88.124;2023-04-03T02:03:51;98137.47;;;8.99;68.15
46642;BME280;32370;41.864;-88.124;2023-04-03T02:06:19;98138.54;;;9.07;68.03
46642;BME280;32370;41.864;-88.124;2023-04-03T02:08:47;98138.04;;;9.00;68.31
46642;BME280;32370;41.864;-88.124;2023-04-03T02:11:15;98138.13;;;8.79;68.24
46642;BME280;32370;41.864;-88.124;2023-04-03T02:13:43;98137.09;;;8.88;68.16
46642;BME280;32370;41.864;-88.124;2023-04-03T02:16:11;98142.05;;;8.86;68.41
46642;BME280;32370;41.864;-88.124;2023-04-03T02:18:39;98137.86;;;8.63;68.75
46642;BME280;32370;41.864;-88.124;2023-04-03T02:21:08;98134.98;;;8.54;69.13
46642;BME280;32370;41.864;-88.124;2023-04-03T02:23:36;98128.35;;;8.71;69.46
46642;BME280;32370;41.864;-88.124;2023-04-03T02:26:06;98122.18;;;8.85;69.03
46642;BME280;32370;41.864;-88.124;2023-04-03T02:28:35;98116.15;;;8.87;69.21
46642;BME280;32370;41.864;-88.124;2023-04-03T02:31:03;98103.57;;;8.81;69.28
46642;BME280;32370;41.864;-88.124;2023-04-03T02:33:31;98099.03;;;8.66;69.05
46642;BME280;32370;41.864;-88.124;2023-04-03T02:35:59;98101.22;;;8.98;68.82
46642;BME280;32370;41.864;-88.124;2023-04-03T02:38:28;98102.09;;;8.79;70.17
46642;BME280;32370;41.864;-88.124;2023-04-03T02:41:01;98093.08;;;8.44;70.04
46642;BME280;32370;41.864;-88.124;2023-04-03T02:43:30;98087.58;;;8.87;70.07
46642;BME280;32370;41.864;-88.124;2023-04-03T02:45:58;98083.84;;;8.68;69.88
46642;BME280;32370;41.864;-88.124;2023-04-03T02:48:27;98079.78;;;8.78;69.72
46642;BME280;32370;41.864;-88.124;2023-04-03T02:50:55;98077.23;;;9.04;69.99
46642;BME280;32370;41.864;-88.124;2023-04-03T02:53:23;98079.18;;;9.07;69.65
46642;BME280;32370;41.864;-88.124;2023-04-03T02:55:50;98079.71;;;8.63;69.95
46642;BME280;32370;41.864;-88.124;2023-04-03T02:58:18;98070.57;;;8.92;70.28
46642;BME280;32370;41.864;-88.124;2023-04-03T03:00:46;98065.51;;;8.63;70.97
46642;BME280;32370;41.864;-88.124;2023-04-03T03:03:14;98062.57;;;8.57;70.54
46642;BME280;32370;41.864;-88.124;2023-04-03T03:05:42;98056.40;;;8.93;70.20
46642;BME280;32370;41.864;-88.124;2023-04-03T03:08:10;98050.74;;;8.99;70.08
46642;BME280;32370;41.864;-88.124;2023-04-03T03:10:37;98044.47;;;8.78;70.62
46642;BME280;32370;41.864;-88.124;2023-04-03T03:13:05;98037.69;;;8.43;71.01
46642;BME280;32370;41.864;-88.124;2023-04-03T03:15:33;98022.81;;;8.07;71.89
46642;BME280;32370;41.864;-88.124;2023-04-03T03:18:01;98004.82;;;8.55;71.58
46642;BME280;32370;41.864;-88.124;2023-04-03T03:20:29;97998.03;;;8.65;71.27
46642;BME280;32370;41.864;-88.124;2023-04-03T03:22:56;98002.59;;;8.37;71.76
46642;BME280;32370;41.864;-88.124;2023-04-03T03:25:24;98012.61;;;8.57;71.42
46642;BME280;32370;41.864;-88.124;2023-04-03T03:27:52;98011.47;;;8.54;71.57
46642;BME280;32370;41.864;-88.124;2023-04-03T03:30:20;98007.39;;;8.76;70.94
46642;BME280;32370;41.864;-88.124;2023-04-03T03:32:48;98008.03;;;8.75;70.72
46642;BME280;32370;41.864;-88.124;2023-04-03T03:35:16;97995.96;;;8.52;70.41
46642;BME280;32370;41.864;-88.124;2023-04-03T03:37:44;97996.39;;;8.50;71.34
46642;BME280;32370;41.864;-88.124;2023-04-03T03:40:12;97989.75;;;8.74;70.85
46642;BME280;32370;41.864;-88.124;2023-04-03T03:42:41;97993.64;;;8.77;70.56
46642;BME280;32370;41.864;-88.124;2023-04-03T03:45:09;97993.51;;;8.99;71.40
46642;BME280;32370;41.864;-88.124;2023-04-03T03:47:37;97983.08;;;8.77;70.57
46642;BME280;32370;41.864;-88.124;2023-04-03T03:50:08;97975.76;;;8.66;70.66
46642;BME280;32370;41.864;-88.124;2023-04-03T03:52:36;97973.26;;;8.61;70.92
46642;BME280;32370;41.864;-88.124;2023-04-03T03:55:05;97969.48;;;8.60;70.89
46642;BME280;32370;41.864;-88.124;2023-04-03T03:57:33;97973.25;;;8.68;70.62
46642;BME280;32370;41.864;-88.124;2023-04-03T04:00:01;97967.67;;;8.48;71.33
46642;BME280;32370;41.864;-88.124;2023-04-03T04:02:28;97969.06;;;8.64;70.88
46642;BME280;32370;41.864;-88.124;2023-04-03T04:04:56;97966.48;;;8.32;71.60
46642;BME280;32370;41.864;-88.124;2023-04-03T04:07:24;97965.29;;;8.30;71.47
46642;BME280;32370;41.864;-88.124;2023-04-03T04:09:52;97958.64;;;8.48;71.18
46642;BME280;32370;41.864;-88.124;2023-04-03T04:12:20;97964.80;;;8.43;71.28
46642;BME280;32370;41.864;-88.124;2023-04-03T04:14:48;97956.71;;;9.01;71.08
46642;BME280;32370;41.864;-88.124;2023-04-03T04:17:15;97965.92;;;8.39;71.20
46642;BME280;32370;41.864;-88.124;2023-04-03T04:19:43;97970.92;;;8.35;71.21
46642;BME280;32370;41.864;-88.124;2023-04-03T04:22:11;97972.14;;;8.34;71.25
46642;BME280;32370;41.864;-88.124;2023-04-03T04:24:39;97967.36;;;8.49;70.98
46642;BME280;32370;41.864;-88.124;2023-04-03T04:27:07;97968.17;;;8.56;70.77
46642;BME280;32370;41.864;-88.124;2023-04-03T04:29:35;97969.45;;;8.24;71.30
46642;BME280;32370;41.864;-88.124;2023-04-03T04:32:04;97968.58;;;8.42;71.14
46642;BME280;32370;41.864;-88.124;2023-04-03T04:34:32;97975.85;;;7.98;71.31
46642;BME280;32370;41.864;-88.124;2023-04-03T04:37:00;97975.48;;;8.22;71.75
46642;BME280;32370;41.864;-88.124;2023-04-03T04:39:28;97971.25;;;8.28;71.64
46642;BME280;32370;41.864;-88.124;2023-04-03T04:41:56;97970.65;;;8.46;71.02
46642;BME280;32370;41.864;-88.124;2023-04-03T04:44:23;97968.46;;;8.38;71.20
46642;BME280;32370;41.864;-88.124;2023-04-03T04:46:51;97967.44;;;8.35;71.44
46642;BME280;32370;41.864;-88.124;2023-04-03T04:49:19;97965.06;;;8.08;71.34
46642;BME280;32370;41.864;-88.124;2023-04-03T04:51:48;97965.71;;;8.32;71.48
46642;BME280;32370;41.864;-88.124;2023-04-03T04:54:17;97960.51;;;8.14;71.59
46642;BME280;32370;41.864;-88.124;2023-04-03T04:56:44;97958.41;;;7.82;72.02
46642;BME280;32370;41.864;-88.124;2023-04-03T04:59:12;97954.55;;;7.73;72.20
46642;BME280;32370;41.864;-88.124;2023-04-03T05:01:40;97958.45;;;7.96;71.87
46642;BME280;32370;41.864;-88.124;2023-04-03T05:04:08;97958.69;;;7.66;72.25
46642;BME280;32370;41.864;-88.124;2023-04-03T05:06:36;97955.40;;;7.92;72.43
46642;BME280;32370;41.864;-88.124;2023-04-03T05:09:04;97958.04;;;7.46;73.34
46642;BME280;32370;41.864;-88.124;2023-04-03T05:11:31;97956.34;;;7.95;72.74
46642;BME280;32370;41.864;-88.124;2023-04-03T05:13:59;97964.72;;;8.00;72.71
46642;BME280;32370;41.864;-88.124;2023-04-03T05:16:27;97970.05;;;8.04;72.44
46642;BME280;32370;41.864;-88.124;2023-04-03T05:18:55;97970.69;;;7.96;72.41
46642;BME280;32370;41.864;-88.124;2023-04-03T05:21:23;97981.74;;;7.79;72.89
46642;BME280;32370;41.864;-88.124;2023-04-03T05:23:51;97985.32;;;7.59;73.69
46642;BME280;32370;41.864;-88.124;2023-04-03T05:26:18;97993.05;;;7.37;73.68
46642;BME280;32370;41.864;-88.124;2023-04-03T05:28:46;97996.58;;;7.77;73.50
46642;BME280;32370;41.864;-88.124;2023-04-03T05:31:14;97992.37;;;7.99;72.74
46642;BME280;32370;41.864;-88.124;2023-04-03T05:33:42;97998.80;;;7.46;73.17
46642;BME280;32370;41.864;-88.124;2023-04-03T05:36:10;98007.57;;;7.75;73.48
46642;BME280;32370;41.864;-88.124;2023-04-03T05:38:38;98014.52;;;7.66;73.36
46642;BME280;32370;41.864;-88.124;2023-04-03T05:41:06;98022.83;;;7.50;73.75
46642;BME280;32370;41.864;-88.124;2023-04-03T05:43:33;98024.60;;;7.58;73.98
46642;BME280;32370;41.864;-88.124;2023-04-03T05:46:01;98032.59;;;7.51;74.07
46642;BME280;32370;41.864;-88.124;2023-04-03T05:48:30;98041.89;;;7.65;73.66
46642;BME280;32370;41.864;-88.124;2023-04-03T05:50:58;98043.83;;;7.27;73.81
46642;BME280;32370;41.864;-88.124;2023-04-03T05:53:29;98052.18;;;7.55;73.76
46642;BME280;32370;41.864;-88.124;2023-04-03T05:56:00;98062.92;;;7.26;74.53
46642;BME280;32370;41.864;-88.124;2023-04-03T05:58:28;98071.00;;;7.27;74.65
46642;BME280;32370;41.864;-88.124;2023-04-03T06:00:55;98073.84;;;7.24;74.53
46642;BME280;32370;41.864;-88.124;2023-04-03T06:03:24;98075.19;;;7.05;74.72
46642;BME280;32370;41.864;-88.124;2023-04-03T06:05:52;98079.98;;;7.22;74.57
46642;BME280;32370;41.864;-88.124;2023-04-03T06:08:20;98084.04;;;7.30;74.47
46642;BME280;32370;41.864;-88.124;2023-04-03T06:10:48;98091.68;;;7.36;74.67
46642;BME280;32370;41.864;-88.124;2023-04-03T06:13:16;98088.64;;;7.18;74.92
46642;BME280;32370;41.864;-88.124;2023-04-03T06:15:43;98089.84;;;6.97;75.52
46642;BME280;32370;41.864;-88.124;2023-04-03T06:18:11;98097.59;;;6.87;76.14
46642;BME280;32370;41.864;-88.124;2023-04-03T06:20:39;98099.84;;;6.86;77.02
46642;BME280;32370;41.864;-88.124;2023-04-03T06:23:07;98104.22;;;6.77;77.96
46642;BME280;32370;41.864;-88.124;2023-04-03T06:25:35;98103.99;;;6.85;77.90
46642;BME280;32370;41.864;-88.124;2023-04-03T06:28:03;98103.68;;;7.05;77.59
46642;BME280;32370;41.864;-88.124;2023-04-03T06:30:31;98105.00;;;7.07;77.66
46642;BME280;32370;41.864;-88.124;2023-04-03T06:32:59;98105.88;;;7.01;77.81
46642;BME280;32370;41.864;-88.124;2023-04-03T06:35:27;98105.39;;;6.94;78.37
46642;BME280;32370;41.864;-88.124;2023-04-03T06:37:55;98103.68;;;6.87;78.76
46642;BME280;32370;41.864;-88.124;2023-04-03T06:40:25;98102.64;;;7.01;78.89
46642;BME280;32370;41.864;-88.124;2023-04-03T06:42:53;98102.94;;;6.97;78.96
46642;BME280;32370;41.864;-88.124;2023-04-03T06:45:20;98106.23;;;6.96;79.68
46642;BME280;32370;41.864;-88.124;2023-04-03T06:47:48;98106.37;;;7.37;79.31
46642;BME280;32370;41.864;-88.124;2023-04-03T06:50:16;98114.25;;;6.83;79.19
46642;BME280;32370;41.864;-88.124;2023-04-03T06:52:44;98115.40;;;6.81;80.08
46642;BME280;32370;41.864;-88.124;2023-04-03T06:55:12;98119.73;;;6.81;80.20
46642;BME280;32370;41.864;-88.124;2023-04-03T06:57:40;98122.59;;;6.49;80.48
46642;BME280;32370;41.864;-88.124;2023-04-03T07:00:08;98125.90;;;6.46;80.32
46642;BME280;32370;41.864;-88.124;2023-04-03T07:02:36;98125.11;;;6.73;80.18
46642;BME280;32370;41.864;-88.124;2023-04-03T07:05:05;98127.05;;;6.43;80.44
46642;BME280;32370;41.864;-88.124;2023-04-03T07:07:33;98129.23;;;6.60;81.71
46642;BME280;32370;41.864;-88.124;2023-04-03T07:10:01;98131.60;;;6.50;82.27
46642;BME280;32370;41.864;-88.124;2023-04-03T07:12:29;98130.42;;;6.06;82.14
46642;BME280;32370;41.864;-88.124;2023-04-03T07:14:57;98125.47;;;6.38;82.83
46642;BME280;32370;41.864;-88.124;2023-04-03T07:17:24;98125.23;;;5.90;82.42
46642;BME280;32370;41.864;-88.124;2023-04-03T07:19:52;98126.32;;;6.15;82.29
46642;BME280;32370;41.864;-88.124;2023-04-03T07:22:20;98123.56;;;5.87;82.32
46642;BME280;32370;41.864;-88.124;2023-04-03T07:24:48;98117.48;;;6.03;82.58
46642;BME280;32370;41.864;-88.124;2023-04-03T07:27:16;98117.08;;;5.65;83.21
46642;BME280;32370;41.864;-88.124;2023-04-03T07:29:44;98117.41;;;5.52;83.97
46642;BME280;32370;41.864;-88.124;2023-04-03T07:32:12;98123.47;;;5.06;86.50
46642;BME280;32370;41.864;-88.124;2023-04-03T07:34:41;98130.62;;;5.59;86.13
46642;BME280;32370;41.864;-88.124;2023-04-03T07:37:09;98127.46;;;5.50;86.86
46642;BME280;32370;41.864;-88.124;2023-04-03T07:39:37;98127.56;;;5.31;88.21
46642;BME280;32370;41.864;-88.124;2023-04-03T07:42:05;98131.67;;;4.68;89.50
46642;BME280;32370;41.864;-88.124;2023-04-03T07:44:34;98138.87;;;4.88;89.16
46642;BME280;32370;41.864;-88.124;2023-04-03T07:47:01;98147.71;;;4.66;90.91
46642;BME280;32370;41.864;-88.124;2023-04-03T07:49:29;98150.27;;;4.68;90.16
46642;BME280;32370;41.864;-88.124;2023-04-03T07:51:57;98153.60;;;4.77;89.47
46642;BME280;32370;41.864;-88.124;2023-04-03T07:54:25;98155.01;;;4.77;89.72
46642;BME280;32370;41.864;-88.124;2023-04-03T07:56:53;98144.51;;;4.77;89.86
46642;BME280;32370;41.864;-88.124;2023-04-03T07:59:21;98135.01;;;4.57;89.83
46642;BME280;32370;41.864;-88.124;2023-04-03T08:01:49;98132.99;;;4.35;92.05
46642;BME280;32370;41.864;-88.124;2023-04-03T08:04:17;98142.87;;;4.14;93.62
46642;BME280;32370;41.864;-88.124;2023-04-03T08:06:45;98140.94;;;4.28;93.40
46642;BME280;32370;41.864;-88.124;2023-04-03T08:09:13;98135.03;;;4.25;94.55
46642;BME280;32370;41.864;-88.124;2023-04-03T08:11:42;98130.11;;;4.36;93.48
46642;BME280;32370;41.864;-88.124;2023-04-03T08:14:10;98131.69;;;4.69;92.19
46642;BME280;32370;41.864;-88.124;2023-04-03T08:16:39;98131.08;;;4.66;91.59
46642;BME280;32370;41.864;-88.124;2023-04-03T08:19:07;98132.24;;;4.24;91.87
46642;BME280;32370;41.864;-88.124;2023-04-03T08:21:35;98124.03;;;4.75;91.53
46642;BME280;32370;41.864;-88.124;2023-04-03T08:24:03;98116.61;;;4.75;92.03
46642;BME280;32370;41.864;-88.124;2023-04-03T08:26:30;98111.21;;;4.30;93.34
46642;BME280;32370;41.864;-88.124;2023-04-03T08:28:58;98107.79;;;4.41;92.35
46642;BME280;32370;41.864;-88.124;2023-04-03T08:31:26;98104.76;;;4.15;91.90
46642;BME280;32370;41.864;-88.124;2023-04-03T08:33:56;98103.73;;;4.52;91.79
46642;BME280;32370;41.864;-88.124;2023-04-03T08:36:25;98102.94;;;4.39;90.86
46642;BME280;32370;41.864;-88.124;2023-04-03T08:38:54;98094.36;;;4.96;90.36
46642;BME280;32370;41.864;-88.124;2023-04-03T08:41:31;98091.17;;;4.56;90.33
46642;BME280;32370;41.864;-88.124;2023-04-03T08:44:15;98090.49;;;4.06;92.53
46642;BME280;32370;41.864;-88.124;2023-04-03T08:46:56;98092.42;;;3.96;93.24
46642;BME280;32370;41.864;-88.124;2023-04-03T08:49:33;98089.56;;;4.02;94.21
46642;BME280;32370;41.864;-88.124;2023-04-03T08:52:08;98081.50;;;4.06;94.10
46642;BME280;32370;41.864;-88.124;2023-04-03T08:54:48;98078.03;;;3.95;95.26
46642;BME280;32370;41.864;-88.124;2023-04-03T08:57:18;98077.47;;;3.92;95.16
46642;BME280;32370;41.864;-88.124;2023-04-03T08:59:47;98079.88;;;3.78;95.63
46642;BME280;32370;41.864;-88.124;2023-04-03T09:02:25;98082.16;;;3.64;95.71
46642;BME280;32370;41.864;-88.124;2023-04-03T09:04:55;98077.36;;;3.42;96.42
46642;BME280;32370;41.864;-88.124;2023-04-03T09:07:33;98081.12;;;3.49;96.19
46642;BME280;32370;41.864;-88.124;2023-04-03T09:10:05;98076.36;;;3.53;96.13
46642;BME280;32370;41.864;-88.124;2023-04-03T09:12:37;98073.99;;;3.48;95.94
46642;BME280;32370;41.864;-88.124;2023-04-03T09:15:14;98069.61;;;3.39;96.12
46642;BME280;32370;41.864;-88.124;2023-04-03T09:17:54;98069.90;;;3.21;97.23
46642;BME280;32370;41.864;-88.124;2023-04-03T09:20:31;98074.46;;;3.14;97.62
46642;BME280;32370;41.864;-88.124;2023-04-03T09:23:17;98074.59;;;2.95;100.00
46642;BME280;32370;41.864;-88.124;2023-04-03T09:25:46;98074.72;;;2.97;100.00
46642;BME280;32370;41.864;-88.124;2023-04-03T09:28:15;98080.61;;;3.24;100.00
46642;BME280;32370;41.864;-88.124;2023-04-03T09:30:43;98085.87;;;3.09;100.00
46642;BME280;32370;41.864;-88.124;2023-04-03T09:33:11;98083.10;;;3.78;100.00
46642;BME280;32370;41.864;-88.124;2023-04-03T09:35:41;98088.45;;;3.86;100.00
46642;BME280;32370;41.864;-88.124;2023-04-03T09:38:19;98089.43;;;3.72;100.00
46642;BME280;32370;41.864;-88.124;2023-04-03T09:40:48;98097.25;;;4.42;100.00
46642;BME280;32370;41.864;-88.124;2023-04-03T09:43:33;98093.48;;;4.46;100.00
46642;BME280;32370;41.864;-88.124;2023-04-03T09:46:25;98094.61;;;4.85;100.00
46642;BME280;32370;41.864;-88.124;2023-04-03T09:48:57;98096.55;;;4.85;100.00
46642;BME280;32370;41.864;-88.124;2023-04-03T09:51:27;98094.10;;;5.26;100.00
46642;BME280;32370;41.864;-88.124;2023-04-03T09:53:55;98091.69;;;5.55;97.24
46642;BME280;32370;41.864;-88.124;2023-04-03T09:56:25;98085.00;;;6.03;95.98
46642;BME280;32370;41.864;-88.124;2023-04-03T09:59:08;98087.51;;;5.69;94.04
46642;BME280;32370;41.864;-88.124;2023-04-03T10:01:43;98088.68;;;5.64;93.50
46642;BME280;32370;41.864;-88.124;2023-04-03T10:04:24;98092.49;;;5.76;91.87
46642;BME280;32370;41.864;-88.124;2023-04-03T10:06:54;98095.33;;;5.77;90.13
46642;BME280;32370;41.864;-88.124;2023-04-03T10:09:24;98097.02;;;6.32;88.32
46642;BME280;32370;41.864;-88.124;2023-04-03T10:12:02;98095.59;;;6.49;87.58
46642;BME280;32370;41.864;-88.124;2023-04-03T10:14:31;98089.55;;;6.14;85.54
46642;BME280;32370;41.864;-88.124;2023-04-03T10:17:05;98082.39;;;5.71;85.49
46642;BME280;32370;41.864;-88.124;2023-04-03T10:19:44;98089.67;;;5.73;85.26
46642;BME280;32370;41.864;-88.124;2023-04-03T10:22:20;98091.08;;;5.79;83.39
46642;BME280;32370;41.864;-88.124;2023-04-03T10:25:01;98099.75;;;5.72;82.46
46642;BME280;32370;41.864;-88.124;2023-04-03T10:27:39;98096.19;;;6.06;77.88
46642;BME280;32370;41.864;-88.124;2023-04-03T10:30:21;98092.12;;;6.13;76.39
46642;BME280;32370;41.864;-88.124;2023-04-03T10:33:00;98093.44;;;6.24;73.51
46642;BME280;32370;41.864;-88.124;2023-04-03T10:35:41;98102.62;;;6.32;72.06
46642;BME280;32370;41.864;-88.124;2023-04-03T10:38:17;98116.33;;;5.95;70.18
46642;BME280;32370;41.864;-88.124;2023-04-03T10:40:55;98127.94;;;6.16;69.83
46642;BME280;32370;41.864;-88.124;2023-04-03T10:43:33;98142.92;;;5.81;70.23
46642;BME280;32370;41.864;-88.124;2023-04-03T10:46:08;98156.53;;;5.75;70.03
46642;BME280;32370;41.864;-88.124;2023-04-03T10:48:53;98170.18;;;5.73;70.31
46642;BME280;32370;41.864;-88.124;2023-04-03T10:51:31;98182.23;;;5.78;69.91
46642;BME280;32370;41.864;-88.124;2023-04-03T10:54:05;98199.33;;;5.84;70.11
46642;BME280;32370;41.864;-88.124;2023-04-03T10:56:40;98212.30;;;5.83;70.54
46642;BME280;32370;41.864;-88.124;2023-04-03T10:59:18;98218.78;;;5.35;71.84
46642;BME280;32370;41.864;-88.124;2023-04-03T11:01:49;98227.70;;;5.67;71.69
46642;BME280;32370;41.864;-88.124;2023-04-03T11:04:19;98234.08;;;5.68;71.56
46642;BME280;32370;41.864;-88.124;2023-04-03T11:06:53;98233.95;;;5.20;71.55
46642;BME280;32370;41.864;-88.124;2023-04-03T11:09:27;98233.96;;;4.96;73.62
46642;BME280;32370;41.864;-88.124;2023-04-03T11:12:02;98237.45;;;4.77;74.68
46642;BME280;32370;41.864;-88.124;2023-04-03T11:14:32;98256.24;;;5.15;74.48
46642;BME280;32370;41.864;-88.124;2023-04-03T11:17:12;98267.89;;;4.89;75.35
46642;BME280;32370;41.864;-88.124;2023-04-03T11:19:47;98275.23;;;4.91;75.63
46642;BME280;32370;41.864;-88.124;2023-04-03T11:22:23;98285.12;;;4.74;75.15
46642;BME280;32370;41.864;-88.124;2023-04-03T11:24:59;98287.14;;;5.15;74.25
46642;BME280;32370;41.864;-88.124;2023-04-03T11:27:37;98277.13;;;5.21;74.08
46642;BME280;32370;41.864;-88.124;2023-04-03T11:30:11;98272.15;;;5.39;72.78
46642;BME280;32370;41.864;-88.124;2023-04-03T11:33:24;98270.32;;;5.93;72.57
46642;BME280;32370;41.864;-88.124;2023-04-03T11:35:58;98266.56;;;5.21;73.21
46642;BME280;32370;41.864;-88.124;2023-04-03T11:38:31;98272.07;;;4.45;77.49
46642;BME280;32370;41.864;-88.124;2023-04-03T11:41:00;98272.24;;;5.08;76.52
46642;BME280;32370;41.864;-88.124;2023-04-03T11:43:30;98270.87;;;4.66;76.31
46642;BME280;32370;41.864;-88.124;2023-04-03T11:46:00;98277.20;;;4.94;75.63
46642;BME280;32370;41.864;-88.124;2023-04-03T11:48:51;98279.33;;;4.85;75.48
46642;BME280;32370;41.864;-88.124;2023-04-03T11:51:51;98276.52;;;5.36;75.90
46642;BME280;32370;41.864;-88.124;2023-04-03T11:54:45;98273.93;;;4.91;76.08
46642;BME280;32370;41.864;-88.124;2023-04-03T11:58:02;98252.62;;;5.52;77.30
46642;BME280;32370;41.864;-88.124;2023-04-03T12:00:53;98248.28;;;4.58;78.12
46642;BME280;32370;41.864;-88.124;2023-04-03T12:04:33;98248.85;;;5.37;78.35
46642;BME280;32370;41.864;-88.124;2023-04-03T12:07:13;98258.56;;;4.77;76.39
46642;BME280;32370;41.864;-88.124;2023-04-03T12:10:19;98271.08;;;5.18;76.61
46642;BME280;32370;41.864;-88.124;2023-04-03T12:13:16;98266.98;;;4.88;76.51
46642;BME280;32370;41.864;-88.124;2023-04-03T12:15:50;98255.28;;;4.95;75.51
46642;BME280;32370;41.864;-88.124;2023-04-03T12:19:00;98245.52;;;5.98;75.03
46642;BME280;32370;41.864;-88.124;2023-04-03T12:22:11;98215.92;;;6.35;74.36
46642;BME280;32370;41.864;-88.124;2023-04-03T12:24:42;98219.12;;;5.50;74.76
46642;BME280;32370;41.864;-88.124;2023-04-03T12:27:21;98227.27;;;5.39;75.31
46642;BME280;32370;41.864;-88.124;2023-04-03T12:29:55;98237.38;;;5.58;75.53
46642;BME280;32370;41.864;-88.124;2023-04-03T12:32:35;98245.38;;;5.77;75.88
46642;BME280;32370;41.864;-88.124;2023-04-03T12:35:17;98263.33;;;5.87;75.58
46642;BME280;32370;41.864;-88.124;2023-04-03T12:38:14;98274.21;;;6.54;74.38
46642;BME280;32370;41.864;-88.124;2023-04-03T12:40:49;98282.14;;;6.48;72.09
46642;BME280;32370;41.864;-88.124;2023-04-03T12:43:33;98285.98;;;6.34;70.93
46642;BME280;32370;41.864;-88.124;2023-04-03T12:46:11;98276.84;;;6.47;69.28
46642;BME280;32370;41.864;-88.124;2023-04-03T12:48:48;98272.69;;;6.79;67.69
46642;BME280;32370;41.864;-88.124;2023-04-03T12:51:21;98271.56;;;6.65;68.13
46642;BME280;32370;41.864;-88.124;2023-04-03T12:53:52;98260.41;;;6.57;68.59
46642;BME280;32370;41.864;-88.124;2023-04-03T12:56:26;98261.41;;;6.67;70.59
46642;BME280;32370;41.864;-88.124;2023-04-03T12:58:57;98264.34;;;7.00;68.42
46642;BME280;32370;41.864;-88.124;2023-04-03T13:01:40;98266.02;;;6.71;65.31
46642;BME280;32370;41.864;-88.124;2023-04-03T13:04:11;98251.84;;;6.51;65.19
46642;BME280;32370;41.864;-88.124;2023-04-03T13:06:40;98249.79;;;6.53;64.91
46642;BME280;32370;41.864;-88.124;2023-04-03T13:09:20;98253.88;;;7.11;65.29
46642;BME280;32370;41.864;-88.124;2023-04-03T13:11:50;98256.76;;;6.86;64.69
46642;BME280;32370;41.864;-88.124;2023-04-03T13:14:20;98255.81;;;7.04;64.00